Huvudsida
METAR-TAF:

METAR-TAF

Flygplatser :

Tiruchirappalli International Airport

Tiruchirappalli, Indien

latitud: 10-46N, longitud: 078-43E, höjd: 85 m

Aktuellt väderrapport

Denna rapport gjordes för 37 minuter sedan, klockan 21:00 UTC
Vind 12 kt från väst
Temperatur 30°C
Fuktighet 70%
Tryck 1002 hPa
Sikt: 4500 m
Få moln på en höjd av 1600 ft
Spridda moln på en höjd av 10000 ft
torrdis,

METAR: VOTR 252100Z 27012KT 4500 HZ FEW016 SCT100 30/24 Q1002 NOSIG

Tid: 03:07 (21:37 UTC)

Väderprognos

Denna rapport gjordes för 4 timmar och 37 minuter sedan, klockan 17:00 UTC
Prognos gäller från 25 kl. 18 UTC till 26 kl. 24 UTC
Vind 10 kt från väst
Sikt: 5000 m
Få moln på en höjd av 1600 ft
Spridda moln på en höjd av 10000 ft
torrdis
Blir
från 26 kl. 03 UTC till 26 kl. 04 UTC
Sikt: 6000 m
Blir
från 26 kl. 18 UTC till 26 kl. 19 UTC
Sikt: 5000 m
torrdis,

TAF: VOTR 251700Z 2518/2624 27010KT 5000 HZ FEW016 SCT100 BECMG 2603/2604 6000 BECMG 2618/2619 5000 HZ

Aktuella väderrapporter och prognoser från 4000 flygplatser (METAR- och TAF-rapporter).

De tillgängliga stationerna syns som gula och röda prickar på kartan.

För musen över prickarna för att se namnen på stationerna.

Klicka sedan för att få väderrapporter och prognoser.

För att ändra kartan: Klicka på de gröna knapparna med ett svart kors på för att zooma in; den gröna knappen med ett streck på för att zooma ut; eller på de gröna pilarna för angränsande kartor.


METAR-TAF: